createdAt,value
2023-06-26T00:00:09.758Z,24.93
2023-06-26T00:02:37.746Z,25.30
2023-06-26T00:05:06.552Z,26.13
2023-06-26T00:07:36.059Z,28.00
2023-06-26T00:10:04.915Z,26.20
2023-06-26T00:12:33.363Z,25.27
2023-06-26T00:15:04.011Z,23.20
2023-06-26T00:17:38.900Z,24.30
2023-06-26T00:20:08.068Z,23.50
2023-06-26T00:22:42.180Z,23.17
2023-06-26T00:25:10.338Z,25.00
2023-06-26T00:27:38.537Z,25.87
2023-06-26T00:30:08.592Z,24.80
2023-06-26T00:32:37.463Z,24.47
2023-06-26T00:35:07.440Z,24.93
2023-06-26T00:37:35.445Z,21.90
2023-06-26T00:40:06.166Z,21.67
2023-06-26T00:42:34.776Z,21.50
2023-06-26T00:45:02.854Z,21.23
2023-06-26T00:47:33.753Z,20.87
2023-06-26T00:50:01.995Z,21.23
2023-06-26T00:52:30.118Z,19.37
2023-06-26T00:54:58.472Z,21.90
2023-06-26T00:57:26.542Z,21.70
2023-06-26T00:59:55.280Z,19.63
2023-06-26T01:02:23.348Z,21.13
2023-06-26T01:04:54.747Z,19.73
2023-06-26T01:07:23.792Z,20.60
2023-06-26T01:09:51.938Z,20.90
2023-06-26T01:12:20.084Z,19.30
2023-06-26T01:14:50.606Z,20.10
2023-06-26T01:17:19.541Z,19.60
2023-06-26T01:19:47.745Z,19.27
2023-06-26T01:22:21.547Z,20.17
2023-06-26T01:24:58.884Z,19.27
2023-06-26T01:27:28.613Z,21.03
2023-06-26T01:29:57.150Z,21.60
2023-06-26T01:32:25.309Z,20.73
2023-06-26T01:34:54.851Z,20.50
2023-06-26T01:37:22.899Z,20.80
2023-06-26T01:39:51.424Z,21.30
2023-06-26T01:42:20.353Z,21.57
2023-06-26T01:44:50.031Z,20.37
2023-06-26T01:47:21.823Z,23.40
2023-06-26T01:49:54.930Z,22.73
2023-06-26T01:52:24.038Z,22.10
2023-06-26T01:54:56.483Z,21.43
2023-06-26T01:57:25.102Z,21.97
2023-06-26T01:59:56.853Z,21.83
2023-06-26T02:02:25.669Z,22.37
2023-06-26T02:04:54.131Z,22.03
2023-06-26T02:07:22.536Z,21.30
2023-06-26T02:09:50.530Z,22.40
2023-06-26T02:12:18.509Z,22.00
2023-06-26T02:14:46.561Z,21.60
2023-06-26T02:17:16.063Z,24.03
2023-06-26T02:19:48.691Z,23.40
2023-06-26T02:22:17.009Z,23.10
2023-06-26T02:24:45.320Z,23.97
2023-06-26T02:27:13.353Z,24.40
2023-06-26T02:29:41.392Z,24.87
2023-06-26T02:32:10.160Z,24.50
2023-06-26T02:34:39.655Z,25.00
2023-06-26T02:37:08.561Z,26.40
2023-06-26T02:39:37.400Z,26.07
2023-06-26T02:42:05.838Z,26.30
2023-06-26T02:44:34.156Z,28.10
2023-06-26T02:47:02.362Z,27.27
2023-06-26T02:49:30.421Z,27.23
2023-06-26T02:51:59.885Z,27.30
2023-06-26T02:54:30.724Z,28.30
2023-06-26T02:57:04.017Z,27.93
2023-06-26T02:59:33.477Z,29.50
2023-06-26T03:02:01.450Z,28.40
2023-06-26T03:04:37.521Z,29.20
2023-06-26T03:07:08.197Z,29.10
2023-06-26T03:09:36.326Z,28.57
2023-06-26T03:12:04.682Z,29.73
2023-06-26T03:14:35.336Z,28.17
2023-06-26T03:17:05.267Z,29.43
2023-06-26T03:19:35.648Z,30.00
2023-06-26T03:22:25.452Z,29.90
2023-06-26T03:24:53.542Z,28.27
2023-06-26T03:27:21.653Z,31.07
2023-06-26T03:29:51.299Z,30.90
2023-06-26T03:32:20.484Z,30.07
2023-06-26T03:34:49.100Z,31.47
2023-06-26T03:37:17.381Z,31.47
2023-06-26T03:39:47.398Z,32.50
2023-06-26T03:42:15.491Z,30.60
2023-06-26T03:44:43.448Z,30.03
2023-06-26T03:47:11.657Z,31.40
2023-06-26T03:49:39.688Z,30.40
2023-06-26T03:52:08.141Z,30.60
2023-06-26T03:54:36.205Z,31.30
2023-06-26T03:57:05.892Z,30.43
2023-06-26T03:59:34.189Z,30.43
2023-06-26T04:02:02.465Z,31.07
2023-06-26T04:04:31.192Z,29.73
2023-06-26T04:07:01.170Z,29.53
2023-06-26T04:09:29.276Z,30.23
2023-06-26T04:11:57.357Z,29.57
2023-06-26T04:14:26.759Z,29.07
2023-06-26T04:16:54.754Z,28.30
2023-06-26T04:19:22.719Z,27.60
2023-06-26T04:21:50.661Z,28.00
2023-06-26T04:24:18.641Z,28.80
2023-06-26T04:26:47.501Z,26.60
2023-06-26T04:29:15.528Z,28.50
2023-06-26T04:31:47.640Z,26.97
2023-06-26T04:34:16.027Z,26.00
2023-06-26T04:36:47.605Z,27.60
2023-06-26T04:39:16.056Z,26.00
2023-06-26T04:41:44.104Z,25.73
2023-06-26T04:44:12.047Z,25.40
2023-06-26T04:46:42.339Z,27.00
2023-06-26T04:49:11.789Z,28.00
2023-06-26T04:51:41.703Z,25.70
2023-06-26T04:54:10.122Z,26.10
2023-06-26T04:56:38.269Z,25.80
2023-06-26T04:59:06.326Z,25.30
2023-06-26T05:01:34.370Z,25.17
2023-06-26T05:04:02.483Z,23.63
2023-06-26T05:06:31.938Z,24.70
2023-06-26T05:08:59.913Z,25.67
2023-06-26T05:11:27.931Z,24.00
2023-06-26T05:13:55.932Z,23.30
2023-06-26T05:16:24.024Z,23.90
2023-06-26T05:18:52.045Z,24.57
2023-06-26T05:21:20.244Z,23.20
2023-06-26T05:23:50.143Z,24.67
2023-06-26T05:26:18.276Z,23.70
2023-06-26T05:28:49.593Z,22.63
2023-06-26T05:31:18.029Z,23.77
2023-06-26T05:33:46.705Z,23.97
2023-06-26T05:36:14.901Z,23.00
2023-06-26T05:38:43.381Z,23.83
2023-06-26T05:41:13.213Z,21.70
2023-06-26T05:43:41.268Z,21.50
2023-06-26T05:46:09.263Z,22.80
2023-06-26T05:48:37.492Z,22.50
2023-06-26T05:51:05.905Z,21.97
2023-06-26T05:53:34.228Z,22.20
2023-06-26T05:56:02.548Z,21.53
2023-06-26T05:58:32.377Z,21.50
2023-06-26T06:01:00.568Z,20.97
2023-06-26T06:03:28.662Z,20.90
2023-06-26T06:05:56.838Z,21.73
2023-06-26T06:08:24.839Z,22.73
2023-06-26T06:10:52.958Z,20.67
2023-06-26T06:13:20.927Z,20.13
2023-06-26T06:15:50.366Z,19.10
2023-06-26T06:18:18.424Z,18.47
2023-06-26T06:20:46.506Z,18.27
2023-06-26T06:23:15.037Z,20.20
2023-06-26T06:25:43.105Z,19.03
2023-06-26T06:28:11.057Z,20.37
2023-06-26T06:30:45.795Z,18.67
2023-06-26T06:33:16.281Z,18.13
2023-06-26T06:35:44.331Z,18.57
2023-06-26T06:38:12.342Z,16.70
2023-06-26T06:40:40.576Z,18.20
2023-06-26T06:43:08.874Z,17.80
2023-06-26T06:45:38.717Z,17.33
2023-06-26T06:48:06.753Z,16.00
2023-06-26T06:50:36.481Z,15.63
2023-06-26T06:53:04.879Z,15.37
2023-06-26T06:55:32.940Z,16.03
2023-06-26T06:58:02.169Z,14.30
2023-06-26T07:00:32.874Z,15.27
2023-06-26T07:03:01.601Z,14.70
2023-06-26T07:05:29.853Z,14.67
2023-06-26T07:08:01.968Z,15.37
2023-06-26T07:10:31.163Z,14.20
2023-06-26T07:12:59.197Z,13.60
2023-06-26T07:15:27.917Z,13.87
2023-06-26T07:17:56.320Z,12.73
2023-06-26T07:20:24.962Z,13.50
2023-06-26T07:22:53.038Z,11.23
2023-06-26T07:25:22.413Z,12.80
2023-06-26T07:27:50.482Z,11.60
2023-06-26T07:30:18.677Z,11.23
2023-06-26T07:32:47.211Z,11.33
2023-06-26T07:35:15.326Z,11.33
2023-06-26T07:37:43.324Z,10.33
2023-06-26T07:40:11.770Z,11.43
2023-06-26T07:42:41.569Z,10.80
2023-06-26T07:45:12.313Z,11.40
2023-06-26T07:47:40.458Z,10.53
2023-06-26T07:50:08.821Z,11.10
2023-06-26T07:52:37.024Z,12.73
2023-06-26T07:55:05.506Z,9.70
2023-06-26T07:57:33.617Z,10.70
2023-06-26T08:00:03.083Z,9.67
2023-06-26T08:02:42.270Z,8.90
2023-06-26T08:05:10.666Z,10.57
2023-06-26T08:07:38.843Z,11.47
2023-06-26T08:10:07.198Z,10.67
2023-06-26T08:12:35.189Z,10.40
2023-06-26T08:15:05.962Z,10.23
2023-06-26T08:17:34.119Z,9.97
2023-06-26T08:20:02.214Z,11.00
2023-06-26T08:22:30.250Z,11.33
2023-06-26T08:24:58.333Z,10.03
2023-06-26T08:27:26.865Z,10.07
2023-06-26T08:29:55.005Z,9.57
2023-06-26T08:32:24.529Z,9.87
2023-06-26T08:34:53.227Z,9.57
2023-06-26T08:37:21.336Z,10.50
2023-06-26T08:39:49.967Z,9.50
2023-06-26T08:42:18.121Z,9.90
2023-06-26T08:45:00.512Z,10.00
2023-06-26T08:47:32.132Z,9.70
2023-06-26T08:50:05.501Z,10.03
2023-06-26T08:52:37.916Z,9.13
2023-06-26T08:55:08.995Z,9.07
2023-06-26T08:57:37.967Z,8.70
2023-06-26T09:00:09.645Z,7.33
2023-06-26T09:02:39.513Z,8.13
2023-06-26T09:05:07.938Z,8.87
2023-06-26T09:07:36.085Z,9.53
2023-06-26T09:10:04.258Z,7.70
2023-06-26T09:12:33.275Z,8.70
2023-06-26T09:15:02.425Z,7.97
2023-06-26T09:17:33.118Z,8.13
2023-06-26T09:20:02.525Z,8.57
2023-06-26T09:22:31.256Z,8.40
2023-06-26T09:24:59.504Z,9.47
2023-06-26T09:27:27.725Z,8.03
2023-06-26T09:29:57.226Z,7.87
2023-06-26T09:32:26.347Z,7.40
2023-06-26T09:34:56.955Z,8.17
2023-06-26T09:37:26.658Z,7.33
2023-06-26T09:39:54.654Z,7.90
2023-06-26T09:42:22.684Z,8.50
2023-06-26T09:44:52.141Z,7.30
2023-06-26T09:47:22.722Z,7.53
2023-06-26T09:49:53.507Z,7.60
2023-06-26T09:52:21.673Z,7.63
2023-06-26T09:54:51.194Z,7.20
2023-06-26T09:57:20.472Z,6.87
2023-06-26T09:59:48.451Z,7.53
2023-06-26T10:02:16.599Z,7.87
2023-06-26T10:04:44.951Z,8.20
2023-06-26T10:07:13.829Z,7.00
2023-06-26T10:09:43.559Z,8.60
2023-06-26T10:12:14.945Z,7.87
2023-06-26T10:14:46.460Z,7.83
2023-06-26T10:17:17.555Z,7.57
2023-06-26T10:19:46.132Z,7.53
2023-06-26T10:22:14.889Z,8.20
2023-06-26T10:24:43.516Z,8.87
2023-06-26T10:27:14.505Z,6.70
2023-06-26T10:29:44.694Z,7.50
2023-06-26T10:32:13.541Z,8.23
2023-06-26T10:34:41.659Z,7.67
2023-06-26T10:37:09.645Z,7.40
2023-06-26T10:39:50.873Z,7.30
2023-06-26T10:42:20.063Z,7.77
2023-06-26T10:44:50.411Z,7.60
2023-06-26T10:47:31.839Z,7.50
2023-06-26T10:50:22.822Z,8.33
2023-06-26T10:53:10.048Z,8.10
2023-06-26T10:55:39.786Z,7.67
2023-06-26T10:58:30.009Z,7.03
2023-06-26T11:01:13.003Z,7.93
2023-06-26T11:03:43.436Z,7.90
2023-06-26T11:06:11.948Z,7.60
2023-06-26T11:08:46.498Z,8.77
2023-06-26T11:11:14.934Z,7.03
2023-06-26T11:13:43.083Z,8.83
2023-06-26T11:16:11.105Z,8.03
2023-06-26T11:18:39.271Z,8.77
2023-06-26T11:21:09.350Z,7.70
2023-06-26T11:23:38.440Z,7.60
2023-06-26T11:26:16.447Z,8.90
2023-06-26T11:28:51.457Z,7.93
2023-06-26T11:31:29.212Z,7.00
2023-06-26T11:33:57.937Z,8.40
2023-06-26T11:36:27.670Z,7.00
2023-06-26T11:38:56.484Z,7.23
2023-06-26T11:41:24.726Z,8.30
2023-06-26T11:43:53.169Z,6.73
2023-06-26T11:46:22.112Z,7.07
2023-06-26T11:48:50.873Z,8.13
2023-06-26T11:51:18.978Z,7.20
2023-06-26T11:53:48.904Z,7.93
2023-06-26T11:56:17.511Z,7.90
2023-06-26T11:58:57.795Z,8.10
2023-06-26T12:01:25.827Z,7.93
2023-06-26T12:03:53.967Z,8.63
2023-06-26T12:06:22.137Z,8.60
2023-06-26T12:08:51.586Z,7.77
2023-06-26T12:11:20.057Z,6.80
2023-06-26T12:13:48.365Z,7.50
2023-06-26T12:16:16.694Z,8.87
2023-06-26T12:18:44.833Z,7.00
2023-06-26T12:21:27.642Z,7.10
2023-06-26T12:24:04.836Z,7.90
2023-06-26T12:26:34.517Z,7.33
2023-06-26T12:29:05.809Z,7.63
2023-06-26T12:31:34.379Z,6.97
2023-06-26T12:34:02.706Z,6.83
2023-06-26T12:36:30.745Z,7.17
2023-06-26T12:38:58.923Z,7.77
2023-06-26T12:41:28.385Z,8.07
2023-06-26T12:43:58.100Z,7.77
2023-06-26T12:46:36.365Z,7.67
2023-06-26T12:49:07.825Z,8.17
2023-06-26T12:51:38.145Z,7.80
2023-06-26T12:54:06.368Z,7.67
2023-06-26T12:56:36.068Z,8.13
2023-06-26T12:59:04.166Z,7.73
2023-06-26T13:01:32.231Z,8.87
2023-06-26T13:04:00.348Z,7.50
2023-06-26T13:06:28.528Z,8.00
2023-06-26T13:08:56.519Z,8.13
2023-06-26T13:11:26.779Z,7.87
2023-06-26T13:14:09.384Z,7.83
2023-06-26T13:16:39.878Z,9.13
2023-06-26T13:19:07.934Z,7.33
2023-06-26T13:21:36.265Z,7.50
2023-06-26T13:24:04.946Z,8.10
2023-06-26T13:29:05.559Z,8.30
2023-06-26T13:31:33.955Z,7.03
2023-06-26T13:34:03.075Z,7.20
2023-06-26T13:36:31.128Z,6.83
2023-06-26T13:38:59.355Z,7.30
2023-06-26T13:41:27.556Z,7.13
2023-06-26T13:43:57.633Z,7.97
2023-06-26T13:46:30.848Z,7.13
2023-06-26T13:48:58.894Z,8.00
2023-06-26T13:51:27.070Z,7.40
2023-06-26T13:53:56.204Z,7.67
2023-06-26T13:56:24.881Z,7.50
2023-06-26T13:58:52.903Z,6.73
2023-06-26T14:01:21.011Z,7.27
2023-06-26T14:03:50.380Z,8.37
2023-06-26T14:06:18.587Z,7.73
2023-06-26T14:08:46.614Z,8.50
2023-06-26T14:11:16.742Z,8.53
2023-06-26T14:13:45.037Z,8.23
2023-06-26T14:16:13.310Z,7.77
2023-06-26T14:18:41.333Z,7.50
2023-06-26T14:21:10.820Z,7.53
2023-06-26T14:23:38.878Z,8.50
2023-06-26T14:26:06.996Z,8.40
2023-06-26T14:28:34.984Z,7.40
2023-06-26T14:31:03.008Z,9.47
2023-06-26T14:33:30.993Z,10.13
2023-06-26T14:35:58.955Z,9.27
2023-06-26T14:38:28.367Z,9.63
2023-06-26T14:40:56.428Z,11.60
2023-06-26T14:43:24.780Z,10.23
2023-06-26T14:45:53.334Z,11.33
2023-06-26T14:48:21.862Z,10.60
2023-06-26T14:50:49.935Z,10.03
2023-06-26T14:53:17.876Z,10.10
2023-06-26T14:55:47.252Z,10.30
2023-06-26T14:58:15.409Z,12.80
2023-06-26T15:00:44.928Z,11.63
2023-06-26T15:03:12.998Z,9.80
2023-06-26T15:05:41.106Z,7.70
2023-06-26T15:08:10.882Z,7.97
2023-06-26T15:10:39.056Z,11.00
2023-06-26T15:13:09.603Z,12.03
2023-06-26T15:15:37.569Z,10.23
2023-06-26T15:18:06.119Z,15.73
2023-06-26T15:20:34.408Z,13.53
2023-06-26T15:23:02.443Z,11.77
2023-06-26T15:25:32.762Z,11.00
2023-06-26T15:28:00.865Z,15.97
2023-06-26T15:30:30.206Z,14.60
2023-06-26T15:32:58.343Z,14.80
2023-06-26T15:35:26.473Z,15.07
2023-06-26T15:37:54.558Z,15.27
2023-06-26T15:40:22.703Z,13.43
2023-06-26T15:42:51.626Z,14.60
2023-06-26T15:45:20.034Z,16.70
2023-06-26T15:47:49.698Z,14.40
2023-06-26T15:50:17.828Z,13.67
2023-06-26T15:52:47.149Z,14.47
2023-06-26T15:55:15.162Z,16.30
2023-06-26T15:57:43.198Z,19.07
2023-06-26T16:00:11.948Z,15.43
2023-06-26T16:02:44.500Z,16.43
2023-06-26T16:05:14.136Z,15.80
2023-06-26T16:07:56.556Z,15.80
2023-06-26T16:10:26.432Z,16.73
2023-06-26T16:12:54.535Z,15.57
2023-06-26T16:15:22.583Z,13.97
2023-06-26T16:17:50.662Z,15.13
2023-06-26T16:20:20.082Z,14.03
2023-06-26T16:22:48.674Z,15.10
2023-06-26T16:25:16.683Z,14.37
2023-06-26T16:27:45.398Z,14.33
2023-06-26T16:30:14.506Z,16.70
2023-06-26T16:32:42.611Z,17.00
2023-06-26T16:35:10.707Z,15.90
2023-06-26T16:37:40.152Z,16.10
2023-06-26T16:40:08.708Z,15.93
2023-06-26T16:42:36.690Z,17.40
2023-06-26T16:45:04.922Z,18.33
2023-06-26T16:47:35.614Z,16.27
2023-06-26T16:50:05.186Z,16.37
2023-06-26T16:52:33.214Z,17.10
2023-06-26T16:55:02.576Z,16.70
2023-06-26T16:57:30.596Z,16.20
2023-06-26T16:59:58.611Z,15.20
2023-06-26T17:02:26.808Z,16.67
2023-06-26T17:04:54.995Z,17.00
2023-06-26T17:07:23.353Z,15.83
2023-06-26T17:09:51.468Z,17.00
2023-06-26T17:12:20.982Z,16.13
2023-06-26T17:14:48.956Z,16.50
2023-06-26T17:17:18.629Z,15.67
2023-06-26T17:19:46.707Z,16.93
2023-06-26T17:22:15.245Z,17.80
2023-06-26T17:24:43.216Z,17.40
2023-06-26T17:27:12.297Z,17.80
2023-06-26T17:29:42.430Z,15.50
2023-06-26T17:32:12.369Z,14.90
2023-06-26T17:34:44.883Z,14.67
2023-06-26T17:37:12.882Z,16.00
2023-06-26T17:39:40.904Z,14.90
2023-06-26T17:42:09.073Z,16.53
2023-06-26T17:44:37.044Z,17.57
2023-06-26T17:47:06.803Z,19.53
2023-06-26T17:49:34.810Z,17.53
2023-06-26T17:52:03.097Z,16.87
2023-06-26T17:54:31.124Z,17.83
2023-06-26T17:56:59.164Z,18.80
2023-06-26T17:59:27.161Z,18.03
2023-06-26T18:01:56.059Z,19.60
2023-06-26T18:04:25.679Z,19.10
2023-06-26T18:06:53.787Z,19.40
2023-06-26T18:09:21.886Z,16.00
2023-06-26T18:11:49.878Z,16.50
2023-06-26T18:14:17.836Z,17.90
2023-06-26T18:16:45.795Z,17.73
2023-06-26T18:19:13.849Z,19.13
2023-06-26T18:21:43.322Z,18.10
2023-06-26T18:24:11.349Z,16.77
2023-06-26T18:26:39.336Z,16.40
2023-06-26T18:29:07.266Z,15.80
2023-06-26T18:31:35.278Z,16.67
2023-06-26T18:34:03.313Z,16.23
2023-06-26T18:36:32.055Z,16.97
2023-06-26T18:39:01.620Z,17.83
2023-06-26T18:41:29.584Z,19.47
2023-06-26T18:43:57.612Z,18.33
2023-06-26T18:46:28.965Z,16.07
2023-06-26T18:49:03.742Z,15.77
2023-06-26T18:51:31.920Z,14.83
2023-06-26T18:54:02.220Z,16.53
2023-06-26T18:56:30.373Z,18.10
2023-06-26T18:58:58.567Z,14.97
2023-06-26T19:01:26.965Z,12.80
2023-06-26T19:03:54.984Z,15.13
2023-06-26T19:06:22.917Z,18.07
2023-06-26T19:08:50.951Z,15.83
2023-06-26T19:11:20.404Z,18.40
2023-06-26T19:13:48.457Z,19.03
2023-06-26T19:16:16.615Z,18.30
2023-06-26T19:18:44.588Z,17.83
2023-06-26T19:21:12.614Z,16.87
2023-06-26T19:23:40.704Z,15.50
2023-06-26T19:26:08.748Z,16.20
2023-06-26T19:28:38.198Z,16.90
2023-06-26T19:31:06.200Z,16.17
2023-06-26T19:33:34.229Z,16.47
2023-06-26T19:36:02.222Z,17.70
2023-06-26T19:38:30.282Z,16.27
2023-06-26T19:40:58.250Z,10.17
2023-06-26T19:43:26.209Z,8.90
2023-06-26T19:45:56.049Z,10.10
2023-06-26T19:48:25.150Z,10.37
2023-06-26T19:50:53.204Z,10.20
2023-06-26T19:53:21.173Z,9.60
2023-06-26T19:55:49.600Z,9.50
2023-06-26T19:58:17.591Z,10.17
2023-06-26T20:00:45.575Z,10.97
2023-06-26T20:03:15.127Z,12.20
2023-06-26T20:05:43.455Z,11.33
2023-06-26T20:08:11.557Z,11.03
2023-06-26T20:10:39.699Z,12.57
2023-06-26T20:13:09.429Z,11.60
2023-06-26T20:15:38.312Z,12.53
2023-06-26T20:18:06.690Z,11.67
2023-06-26T20:20:36.110Z,9.90
2023-06-26T20:23:04.166Z,13.70
2023-06-26T20:25:32.253Z,12.77
2023-06-26T20:28:00.332Z,11.23
2023-06-26T20:30:28.274Z,11.10
2023-06-26T20:32:56.232Z,11.60
2023-06-26T20:35:24.264Z,11.67
2023-06-26T20:37:53.655Z,13.13
2023-06-26T20:40:22.335Z,13.77
2023-06-26T20:42:50.576Z,12.70
2023-06-26T20:45:19.006Z,12.97
2023-06-26T20:47:47.505Z,13.00
2023-06-26T20:50:16.407Z,14.23
2023-06-26T20:52:45.035Z,15.00
2023-06-26T20:55:15.154Z,14.80
2023-06-26T20:57:43.224Z,16.03
2023-06-26T21:00:11.823Z,15.07
2023-06-26T21:02:39.812Z,16.23
2023-06-26T21:05:08.429Z,18.20
2023-06-26T21:07:36.461Z,17.20
2023-06-26T21:10:05.083Z,19.43
2023-06-26T21:12:35.884Z,37.03
2023-06-26T21:15:03.927Z,25.33
2023-06-26T21:17:31.995Z,27.57
2023-06-26T21:20:00.052Z,26.70
2023-06-26T21:22:28.024Z,16.80
2023-06-26T21:24:56.085Z,14.37
2023-06-26T21:27:24.056Z,11.97
2023-06-26T21:29:53.623Z,12.80
2023-06-26T21:32:21.878Z,13.43
2023-06-26T21:34:50.643Z,12.67
2023-06-26T21:37:18.627Z,13.80
2023-06-26T21:39:46.616Z,12.47
2023-06-26T21:42:14.569Z,13.23
2023-06-26T21:44:42.645Z,12.17
2023-06-26T21:47:12.062Z,13.70
2023-06-26T21:49:40.104Z,12.97
2023-06-26T21:52:08.254Z,13.50
2023-06-26T21:54:36.336Z,13.97
2023-06-26T21:57:04.886Z,14.67
2023-06-26T21:59:32.830Z,16.30
2023-06-26T22:02:01.016Z,13.63
2023-06-26T22:04:30.550Z,15.03
2023-06-26T22:06:58.665Z,16.83
2023-06-26T22:09:26.812Z,17.07
2023-06-26T22:11:55.750Z,15.53
2023-06-26T22:14:23.744Z,16.20
2023-06-26T22:16:51.960Z,16.77
2023-06-26T22:19:19.989Z,15.90
2023-06-26T22:21:49.880Z,16.60
2023-06-26T22:24:17.957Z,18.13
2023-06-26T22:26:45.966Z,17.00
2023-06-26T22:29:13.981Z,16.73
2023-06-26T22:31:42.106Z,15.70
2023-06-26T22:34:10.608Z,17.53
2023-06-26T22:36:38.692Z,16.90
2023-06-26T22:39:08.280Z,16.80
2023-06-26T22:41:36.797Z,18.00
2023-06-26T22:44:04.874Z,15.67
2023-06-26T22:46:33.000Z,15.73
2023-06-26T22:49:01.440Z,16.90
2023-06-26T22:51:29.429Z,18.20
2023-06-26T22:53:57.406Z,17.93
2023-06-26T22:56:27.765Z,16.00
2023-06-26T22:58:56.034Z,15.80
2023-06-26T23:01:24.085Z,18.10
2023-06-26T23:03:52.197Z,19.00
2023-06-26T23:06:22.863Z,18.60
2023-06-26T23:08:51.016Z,19.03
2023-06-26T23:11:18.981Z,18.57
2023-06-26T23:13:48.312Z,18.50
2023-06-26T23:16:16.320Z,16.47
2023-06-26T23:18:44.264Z,16.77
2023-06-26T23:21:12.312Z,18.27
2023-06-26T23:23:40.349Z,17.60
2023-06-26T23:26:08.421Z,16.53
2023-06-26T23:28:36.516Z,15.17
2023-06-26T23:31:06.766Z,16.43
2023-06-26T23:33:41.731Z,16.83
2023-06-26T23:36:10.665Z,17.20
2023-06-26T23:38:43.794Z,17.63
2023-06-26T23:41:11.897Z,18.37
2023-06-26T23:43:41.300Z,17.40
2023-06-26T23:46:12.427Z,18.67
2023-06-26T23:48:40.952Z,19.37
2023-06-26T23:51:10.165Z,19.00
2023-06-26T23:53:40.256Z,19.33
2023-06-26T23:56:08.453Z,19.73
2023-06-26T23:58:37.139Z,18.43
